Time;durP1;ratioP1;P1;durP2;ratioP2;P2;SDS_P1;SDS_P2;PMS_P1;PMS_P2;Temp;Humidity;BMP_temperature;BMP_pressure;BME280_temperature;BME280_humidity;BME280_pressure;Samples;Min_cycle;Max_cycle;Signal;HPM_P1;HPM_P2
2021/12/06 00:01:31;;;;;;;15.63;10.40;;;2.40;99.90;;;;;;5067372;28;20455;-63
2021/12/06 00:04:02;;;;;;;11.90;10.70;;;2.50;99.90;;;;;;5072663;28;20460;-66
2021/12/06 00:06:33;;;;;;;12.73;10.90;;;2.50;99.90;;;;;;5069313;28;20459;-64
2021/12/06 00:09:00;;;;;;;10.70;9.30;;;2.50;99.90;;;;;;5067354;28;20435;-62
2021/12/06 00:11:29;;;;;;;10.23;8.83;;;2.50;99.90;;;;;;5067342;28;20497;-67
2021/12/06 00:13:55;;;;;;;11.60;10.40;;;2.50;99.90;;;;;;5067400;28;20447;-64
2021/12/06 00:16:23;;;;;;;10.37;9.37;;;2.60;99.90;;;;;;5067295;28;20954;-64
2021/12/06 00:18:52;;;;;;;10.40;9.40;;;2.60;99.90;;;;;;5067218;28;20482;-63
2021/12/06 00:21:21;;;;;;;10.47;9.13;;;2.70;99.90;;;;;;5067240;28;20469;-63
2021/12/06 00:23:48;;;;;;;10.10;9.10;;;2.70;99.90;;;;;;5067105;28;20960;-66
2021/12/06 00:26:16;;;;;;;13.30;9.27;;;2.70;99.90;;;;;;5067281;28;20449;-63
2021/12/06 00:28:46;;;;;;;12.20;10.60;;;2.70;99.90;;;;;;5067307;28;20444;-63
2021/12/06 00:31:15;;;;;;;10.50;9.47;;;2.70;99.90;;;;;;5067580;28;20546;-65
2021/12/06 00:33:43;;;;;;;13.23;10.60;;;2.80;99.90;;;;;;5067651;28;20449;-64
2021/12/06 00:36:16;;;;;;;10.20;9.20;;;2.70;99.90;;;;;;5067277;28;20445;-64
2021/12/06 00:38:45;;;;;;;11.33;10.13;;;2.70;99.90;;;;;;5069182;28;20485;-64
2021/12/06 00:41:13;;;;;;;16.43;13.47;;;2.70;99.90;;;;;;5070910;28;20878;-63
2021/12/06 00:43:40;;;;;;;16.27;12.77;;;2.80;99.90;;;;;;5071291;28;20453;-64
2021/12/06 00:46:08;;;;;;;12.53;11.00;;;2.80;99.90;;;;;;5070742;28;20465;-63
2021/12/06 00:48:35;;;;;;;10.67;9.57;;;2.70;99.90;;;;;;5070475;28;20905;-63
2021/12/06 00:51:02;;;;;;;10.53;9.43;;;2.80;99.90;;;;;;5070387;28;20471;-65
2021/12/06 00:53:29;;;;;;;11.40;9.20;;;2.80;99.90;;;;;;5070515;28;20916;-63
2021/12/06 00:55:56;;;;;;;12.60;10.50;;;2.90;99.90;;;;;;5070138;28;20446;-65
2021/12/06 00:58:23;;;;;;;19.87;13.60;;;2.90;99.90;;;;;;5070411;28;20487;-63
2021/12/06 01:00:53;;;;;;;13.10;10.70;;;2.90;99.90;;;;;;5070630;28;20466;-63
2021/12/06 01:03:25;;;;;;;11.60;10.27;;;2.90;99.90;;;;;;5070344;28;20450;-62
2021/12/06 01:05:52;;;;;;;11.33;10.23;;;2.90;99.90;;;;;;5070474;28;20450;-63
2021/12/06 01:08:20;;;;;;;11.03;9.67;;;2.90;99.90;;;;;;5070093;28;20543;-66
2021/12/06 01:10:48;;;;;;;12.03;10.30;;;2.90;99.90;;;;;;5070353;28;20473;-65
2021/12/06 01:13:16;;;;;;;11.63;9.97;;;2.80;99.90;;;;;;5070363;28;20443;-62
2021/12/06 01:15:44;;;;;;;14.27;11.63;;;2.90;99.90;;;;;;5070147;28;20530;-64
2021/12/06 01:18:13;;;;;;;14.17;10.57;;;2.90;99.90;;;;;;5069538;28;20943;-65
2021/12/06 01:20:53;;;;;;;10.90;9.80;;;2.90;99.90;;;;;;5069926;28;20538;-63
2021/12/06 01:23:24;;;;;;;10.63;9.53;;;2.90;99.90;;;;;;5069779;28;20941;-63
2021/12/06 01:26:07;;;;;;;13.00;10.40;;;2.90;99.90;;;;;;5070330;28;20439;-60
2021/12/06 01:29:07;;;;;;;12.20;10.70;;;2.90;99.90;;;;;;5069918;28;20454;-61
2021/12/06 01:31:44;;;;;;;10.67;9.37;;;2.80;99.90;;;;;;5070316;28;20815;-65
2021/12/06 01:39:38;;;;;;;12.93;11.73;;;2.90;99.90;;;;;;5069690;28;20477;-64
2021/12/06 01:42:07;;;;;;;12.33;11.03;;;2.90;99.90;;;;;;5070084;28;20453;-63
2021/12/06 01:44:37;;;;;;;19.37;13.63;;;2.90;99.90;;;;;;5069838;28;20455;-63
2021/12/06 01:47:07;;;;;;;10.90;9.80;;;2.90;99.90;;;;;;5069947;28;20463;-62
2021/12/06 01:49:38;;;;;;;11.50;10.30;;;2.90;99.90;;;;;;5069171;28;20471;-63
2021/12/06 01:52:11;;;;;;;12.90;10.67;;;2.90;99.90;;;;;;5070304;28;20458;-62
2021/12/06 01:54:38;;;;;;;13.10;10.77;;;2.90;99.90;;;;;;5070114;28;20454;-64
2021/12/06 01:57:06;;;;;;;11.10;10.00;;;3.00;99.90;;;;;;5069238;28;20446;-62
2021/12/06 01:59:33;;;;;;;13.03;10.23;;;3.00;99.90;;;;;;5069329;28;20491;-64
2021/12/06 02:02:00;;;;;;;12.33;10.50;;;2.90;99.90;;;;;;5069269;28;20443;-64
2021/12/06 02:04:29;;;;;;;12.03;10.40;;;2.90;99.90;;;;;;5069463;28;20960;-60
2021/12/06 02:06:56;;;;;;;12.77;10.63;;;3.00;99.90;;;;;;5069063;28;20453;-64
2021/12/06 02:09:26;;;;;;;12.47;10.30;;;2.90;99.90;;;;;;5069068;28;20984;-62
2021/12/06 02:11:55;;;;;;;12.23;11.00;;;2.90;99.90;;;;;;5069127;28;20971;-63
2021/12/06 02:14:36;;;;;;;11.87;10.67;;;2.90;99.90;;;;;;5069236;28;20458;-63
2021/12/06 02:17:14;;;;;;;11.10;10.00;;;3.00;99.90;;;;;;5068902;28;21063;-66
2021/12/06 02:19:45;;;;;;;11.57;10.40;;;2.90;99.90;;;;;;5068995;28;20527;-63
2021/12/06 02:22:16;;;;;;;11.57;10.37;;;2.90;99.90;;;;;;5068845;28;21028;-64
2021/12/06 02:24:43;;;;;;;11.33;10.17;;;2.90;99.90;;;;;;5069005;28;20459;-64
2021/12/06 02:27:12;;;;;;;10.67;9.60;;;2.80;99.90;;;;;;5068683;28;20451;-64
2021/12/06 02:29:40;;;;;;;11.27;10.03;;;2.80;99.90;;;;;;5068957;28;20478;-64
2021/12/06 02:32:10;;;;;;;11.80;9.03;;;2.90;99.90;;;;;;5069290;28;20455;-63
2021/12/06 02:34:38;;;;;;;10.00;9.00;;;2.90;99.90;;;;;;5068838;28;20454;-65
2021/12/06 02:37:06;;;;;;;12.63;11.37;;;2.90;99.90;;;;;;5068378;28;20536;-63
2021/12/06 02:39:35;;;;;;;11.10;9.07;;;3.00;99.90;;;;;;5068442;28;20494;-64
2021/12/06 02:42:02;;;;;;;12.23;10.90;;;2.90;99.90;;;;;;5068839;28;20446;-66
2021/12/06 02:44:29;;;;;;;11.87;10.40;;;2.90;99.90;;;;;;5068841;28;20450;-64
2021/12/06 02:46:56;;;;;;;11.30;9.93;;;2.80;99.90;;;;;;5068338;28;20447;-63
2021/12/06 02:49:23;;;;;;;11.67;10.57;;;2.80;99.90;;;;;;5068147;28;20467;-62
2021/12/06 02:51:51;;;;;;;11.30;10.17;;;2.80;99.90;;;;;;5068467;28;20453;-62
2021/12/06 02:54:20;;;;;;;11.33;9.90;;;2.80;99.90;;;;;;5068641;28;20446;-63
2021/12/06 02:56:56;;;;;;;12.00;10.80;;;2.80;99.90;;;;;;5068077;28;20454;-62
2021/12/06 02:59:25;;;;;;;11.33;10.20;;;2.80;99.90;;;;;;5068490;28;20568;-62
2021/12/06 03:01:59;;;;;;;12.43;11.23;;;2.80;99.90;;;;;;5067210;28;20458;-63
2021/12/06 03:04:26;;;;;;;10.77;9.67;;;2.80;99.90;;;;;;5068189;28;21096;-63
2021/12/06 03:06:55;;;;;;;12.27;10.97;;;2.90;99.90;;;;;;5068058;28;20474;-63
2021/12/06 03:09:24;;;;;;;11.73;10.53;;;3.00;99.90;;;;;;5068571;28;20474;-62
2021/12/06 03:11:55;;;;;;;11.37;10.10;;;3.00;99.90;;;;;;5068269;28;20545;-62
2021/12/06 03:14:26;;;;;;;12.17;10.97;;;3.00;99.90;;;;;;5068436;28;20451;-63
2021/12/06 03:16:55;;;;;;;13.03;10.53;;;2.90;99.90;;;;;;5067639;28;20823;-65
2021/12/06 03:19:22;;;;;;;11.80;9.93;;;2.80;99.90;;;;;;5068102;28;20875;-63
2021/12/06 03:21:49;;;;;;;12.47;11.13;;;2.70;99.90;;;;;;5068068;28;20812;-63
2021/12/06 03:24:16;;;;;;;11.60;10.47;;;2.80;99.90;;;;;;5068225;28;20447;-63
2021/12/06 03:26:44;;;;;;;11.80;10.63;;;2.80;99.90;;;;;;5067685;28;20465;-64
2021/12/06 03:29:13;;;;;;;13.20;10.63;;;2.80;99.90;;;;;;5068251;28;21008;-64
2021/12/06 03:31:41;;;;;;;11.90;10.53;;;2.90;99.90;;;;;;5067714;28;20458;-64
2021/12/06 03:34:09;;;;;;;10.87;9.77;;;2.90;99.90;;;;;;5067851;28;20966;-62
2021/12/06 03:36:37;;;;;;;11.50;10.30;;;2.90;99.90;;;;;;5067959;28;20850;-63
2021/12/06 03:39:07;;;;;;;12.50;10.30;;;2.90;99.90;;;;;;5067997;28;20493;-64
2021/12/06 03:41:34;;;;;;;15.10;12.10;;;2.90;99.90;;;;;;5068444;28;20458;-61
2021/12/06 03:44:01;;;;;;;13.73;12.33;;;2.90;99.90;;;;;;5067640;28;20446;-65
2021/12/06 03:46:32;;;;;;;12.93;11.53;;;2.90;99.90;;;;;;5067775;28;20455;-63
2021/12/06 03:48:59;;;;;;;13.07;10.90;;;2.90;99.90;;;;;;5068051;28;20464;-63
2021/12/06 03:51:26;;;;;;;12.47;11.27;;;2.90;99.90;;;;;;5067831;28;20813;-63
2021/12/06 03:53:53;;;;;;;14.10;10.90;;;2.90;99.90;;;;;;5067713;28;20450;-64
2021/12/06 03:56:20;;;;;;;15.67;11.53;;;2.90;99.90;;;;;;5067477;28;20454;-63
2021/12/06 03:58:47;;;;;;;12.13;10.90;;;2.90;99.90;;;;;;5067514;28;20482;-63
2021/12/06 04:01:14;;;;;;;13.30;12.00;;;3.00;99.90;;;;;;5067666;28;20504;-63
2021/12/06 04:03:43;;;;;;;11.70;10.57;;;3.00;99.90;;;;;;5068022;28;21105;-64
2021/12/06 04:06:11;;;;;;;13.67;12.27;;;3.00;99.90;;;;;;5067677;28;20449;-63
2021/12/06 04:08:38;;;;;;;14.47;13.00;;;3.10;99.90;;;;;;5067347;28;20525;-63
2021/12/06 04:11:05;;;;;;;14.23;12.87;;;3.10;99.90;;;;;;5067152;28;20468;-63
2021/12/06 04:13:33;;;;;;;12.60;11.17;;;3.10;99.90;;;;;;5069493;28;20460;-62
2021/12/06 04:16:01;;;;;;;13.10;11.80;;;3.10;99.90;;;;;;5071438;28;20450;-63
2021/12/06 04:18:27;;;;;;;11.70;10.50;;;3.20;99.90;;;;;;5071343;28;20474;-63
2021/12/06 04:20:56;;;;;;;12.10;10.80;;;3.20;99.90;;;;;;5069035;28;20470;-65
2021/12/06 04:23:22;;;;;;;12.00;10.80;;;3.20;99.90;;;;;;5071019;28;20451;-63
2021/12/06 04:25:50;;;;;;;12.50;11.20;;;3.30;99.90;;;;;;5071391;28;20803;-63
2021/12/06 04:28:19;;;;;;;13.30;11.90;;;3.30;99.90;;;;;;5070956;28;20449;-64
2021/12/06 04:30:47;;;;;;;13.80;12.13;;;3.30;99.90;;;;;;5071231;28;20470;-63
2021/12/06 04:33:15;;;;;;;12.00;10.80;;;3.30;99.90;;;;;;5071325;28;20457;-63
2021/12/06 04:35:42;;;;;;;12.33;11.23;;;3.30;99.90;;;;;;5071511;28;20826;-64
2021/12/06 04:38:11;;;;;;;12.67;11.37;;;3.30;99.90;;;;;;5070503;28;20461;-63
2021/12/06 04:40:38;;;;;;;13.93;11.87;;;3.20;99.90;;;;;;5071068;28;20494;-63
2021/12/06 04:43:07;;;;;;;13.37;11.97;;;3.20;99.90;;;;;;5071111;28;21004;-63
2021/12/06 04:45:34;;;;;;;14.37;12.97;;;3.30;99.90;;;;;;5071132;28;20453;-63
2021/12/06 04:48:01;;;;;;;12.13;10.83;;;3.30;99.90;;;;;;5070495;28;20461;-65
2021/12/06 04:50:32;;;;;;;11.70;10.60;;;3.30;99.90;;;;;;5071483;28;20494;-63
2021/12/06 04:53:02;;;;;;;14.27;12.77;;;3.30;99.90;;;;;;5070926;28;20445;-65
2021/12/06 04:55:36;;;;;;;12.50;11.20;;;3.30;99.90;;;;;;5070689;28;21022;-64
2021/12/06 04:58:05;;;;;;;21.03;13.23;;;3.40;99.90;;;;;;5070625;28;20973;-64
2021/12/06 05:00:35;;;;;;;12.50;11.20;;;3.40;99.90;;;;;;5070201;28;20493;-63
2021/12/06 05:03:03;;;;;;;12.00;10.80;;;3.30;99.90;;;;;;5070628;28;20457;-63
2021/12/06 05:05:33;;;;;;;12.10;11.00;;;3.30;99.90;;;;;;5070266;28;20456;-65
2021/12/06 05:08:03;;;;;;;11.97;10.77;;;3.20;99.90;;;;;;5070179;28;20944;-64
2021/12/06 05:10:32;;;;;;;12.57;10.57;;;3.10;99.90;;;;;;5070281;28;20457;-62
2021/12/06 05:12:59;;;;;;;12.13;10.83;;;3.10;99.90;;;;;;5070639;28;20450;-63
2021/12/06 05:15:26;;;;;;;12.57;11.27;;;3.10;99.90;;;;;;5069991;28;20446;-64
2021/12/06 05:17:52;;;;;;;14.33;12.83;;;3.00;99.90;;;;;;5069799;28;21023;-63
2021/12/06 05:20:19;;;;;;;16.23;13.50;;;3.10;99.90;;;;;;5070170;28;20513;-62
2021/12/06 05:22:47;;;;;;;13.10;11.70;;;3.10;99.90;;;;;;5070215;28;20463;-64
2021/12/06 05:25:14;;;;;;;15.13;13.00;;;3.10;99.90;;;;;;5069211;28;20447;-63
2021/12/06 05:27:43;;;;;;;14.77;13.23;;;3.20;99.90;;;;;;5069759;28;20482;-63
2021/12/06 05:30:12;;;;;;;19.77;17.63;;;3.20;99.90;;;;;;5069822;28;20880;-63
2021/12/06 05:32:41;;;;;;;24.97;18.63;;;3.20;99.90;;;;;;5069845;28;20451;-63
2021/12/06 05:35:10;;;;;;;20.33;17.33;;;3.20;99.90;;;;;;5070243;28;20445;-63
2021/12/06 05:37:42;;;;;;;19.73;17.57;;;3.30;99.90;;;;;;5069142;28;20957;-62
2021/12/06 05:40:15;;;;;;;23.00;17.60;;;3.20;99.90;;;;;;5069850;28;20489;-63
2021/12/06 05:42:43;;;;;;;21.20;16.63;;;3.20;99.90;;;;;;5069427;28;20451;-64
2021/12/06 05:45:12;;;;;;;22.50;19.00;;;3.10;99.90;;;;;;5069987;28;20450;-63
2021/12/06 05:47:39;;;;;;;21.40;17.37;;;3.10;99.90;;;;;;5069394;28;20815;-64
2021/12/06 05:50:07;;;;;;;24.00;17.20;;;3.10;99.90;;;;;;5069462;28;20461;-66
2021/12/06 05:52:34;;;;;;;27.27;20.03;;;3.00;99.90;;;;;;5069247;28;21116;-66
2021/12/06 05:55:01;;;;;;;25.53;18.87;;;3.00;99.90;;;;;;5069761;28;20449;-63
2021/12/06 05:57:28;;;;;;;25.77;19.17;;;3.00;99.90;;;;;;5069122;28;20444;-63
2021/12/06 05:59:57;;;;;;;29.77;19.80;;;3.00;99.90;;;;;;5068927;28;20485;-62
2021/12/06 06:02:24;;;;;;;28.50;20.00;;;3.00;99.90;;;;;;5069305;28;20451;-64
2021/12/06 06:04:50;;;;;;;25.43;19.20;;;3.00;99.90;;;;;;5069031;28;20546;-63
2021/12/06 06:07:17;;;;;;;27.77;19.23;;;3.00;99.90;;;;;;5068906;28;20458;-63
2021/12/06 06:09:44;;;;;;;25.93;20.13;;;3.00;99.90;;;;;;5068732;28;20519;-65
2021/12/06 06:12:11;;;;;;;32.03;21.40;;;3.00;99.90;;;;;;5069118;28;20449;-63
2021/12/06 06:14:38;;;;;;;28.10;21.70;;;3.00;99.90;;;;;;5069013;28;20457;-65
2021/12/06 06:17:12;;;;;;;27.50;19.73;;;3.00;99.90;;;;;;5069150;28;20459;-65
2021/12/06 06:19:42;;;;;;;23.03;18.57;;;3.00;99.90;;;;;;5068907;28;20485;-63
2021/12/06 06:22:09;;;;;;;26.43;20.27;;;3.00;99.90;;;;;;5068974;28;20469;-63
2021/12/06 06:24:36;;;;;;;27.80;21.10;;;3.00;99.90;;;;;;5068776;28;20451;-63
2021/12/06 06:27:04;;;;;;;26.50;19.60;;;3.00;99.90;;;;;;5068934;28;20454;-63
2021/12/06 06:29:31;;;;;;;24.30;20.53;;;3.10;99.90;;;;;;5068711;28;21130;-63
2021/12/06 06:31:58;;;;;;;29.00;20.27;;;3.10;99.90;;;;;;5068850;28;20457;-64
2021/12/06 06:34:26;;;;;;;24.37;19.73;;;3.20;99.90;;;;;;5068546;28;21143;-62
2021/12/06 06:36:53;;;;;;;24.00;18.90;;;3.10;99.90;;;;;;5068042;28;20451;-65
2021/12/06 06:39:21;;;;;;;21.70;19.13;;;3.20;99.90;;;;;;5062651;28;20486;-63
2021/12/06 06:41:49;;;;;;;22.07;17.90;;;3.30;99.90;;;;;;5049977;28;20826;-63
2021/12/06 06:44:17;;;;;;;23.17;18.90;;;3.30;99.90;;;;;;5063062;28;20449;-63
2021/12/06 06:46:45;;;;;;;24.43;18.53;;;3.30;99.90;;;;;;5058486;28;20542;-63
2021/12/06 06:49:12;;;;;;;23.90;19.70;;;3.40;99.90;;;;;;5063130;28;20469;-63
2021/12/06 06:51:42;;;;;;;21.03;17.73;;;3.40;99.90;;;;;;5059446;28;20979;-63
2021/12/06 06:54:13;;;;;;;23.30;18.47;;;3.40;99.90;;;;;;5066291;28;20448;-63
2021/12/06 06:56:39;;;;;;;22.00;17.00;;;3.50;99.90;;;;;;5045383;28;20443;-63
2021/12/06 06:59:06;;;;;;;21.03;17.23;;;3.50;99.90;;;;;;5046581;28;20485;-65
2021/12/06 07:01:34;;;;;;;23.30;19.60;;;3.50;99.90;;;;;;5046689;28;20461;-63
2021/12/06 07:04:01;;;;;;;21.67;18.47;;;3.60;99.90;;;;;;5057888;28;20457;-63
2021/12/06 07:06:29;;;;;;;25.03;19.50;;;3.50;99.90;;;;;;5065745;28;20453;-65
2021/12/06 07:08:58;;;;;;;20.53;18.27;;;3.50;99.90;;;;;;5065291;28;20435;-64
2021/12/06 07:11:26;;;;;;;19.17;16.57;;;3.50;99.90;;;;;;5065436;28;20482;-65
2021/12/06 07:13:53;;;;;;;20.90;18.60;;;3.60;99.90;;;;;;5065465;28;20485;-64
2021/12/06 07:16:21;;;;;;;21.60;16.97;;;3.60;99.90;;;;;;5065679;28;20520;-62
2021/12/06 07:18:48;;;;;;;22.47;18.70;;;3.60;99.90;;;;;;5061986;28;20872;-64
2021/12/06 07:21:15;;;;;;;21.60;16.93;;;3.60;99.90;;;;;;5043400;28;20494;-62
2021/12/06 07:23:44;;;;;;;20.07;17.30;;;3.60;99.90;;;;;;5047335;28;20558;-63
2021/12/06 07:26:13;;;;;;;19.93;16.90;;;3.70;99.90;;;;;;5046942;28;20501;-63
2021/12/06 07:28:41;;;;;;;23.00;17.83;;;3.70;99.90;;;;;;5061092;28;20475;-62
2021/12/06 07:31:12;;;;;;;22.37;18.10;;;3.70;99.90;;;;;;5066248;28;20590;-61
2021/12/06 07:33:39;;;;;;;22.70;19.80;;;3.70;99.90;;;;;;5060341;28;20473;-63
2021/12/06 07:36:07;;;;;;;21.57;17.37;;;3.70;99.90;;;;;;5067569;28;20453;-64
2021/12/06 07:38:35;;;;;;;23.10;17.93;;;3.70;99.90;;;;;;5067631;28;20458;-63
2021/12/06 07:41:02;;;;;;;21.43;17.10;;;3.80;99.90;;;;;;5056469;28;20491;-64
2021/12/06 07:43:31;;;;;;;21.03;16.97;;;3.80;99.90;;;;;;5046459;28;20456;-64
2021/12/06 07:45:57;;;;;;;20.60;17.07;;;3.80;99.90;;;;;;5047317;28;20596;-65
2021/12/06 07:48:24;;;;;;;24.20;18.37;;;3.80;99.90;;;;;;5046789;28;20447;-63
2021/12/06 07:50:51;;;;;;;23.27;20.07;;;3.80;99.90;;;;;;5047732;28;20574;-64
2021/12/06 07:53:18;;;;;;;25.17;20.20;;;3.80;99.90;;;;;;5047690;28;20912;-64
2021/12/06 07:55:45;;;;;;;23.73;19.00;;;3.80;99.90;;;;;;5047948;28;20455;-64
2021/12/06 07:58:13;;;;;;;21.13;17.07;;;3.80;99.90;;;;;;5047076;28;20518;-64
2021/12/06 08:00:47;;;;;;;21.77;19.27;;;3.90;99.90;;;;;;5047200;28;20582;-63
2021/12/06 08:03:15;;;;;;;19.63;17.50;;;3.90;99.90;;;;;;5047399;28;20959;-63
2021/12/06 08:05:44;;;;;;;22.50;19.50;;;3.90;99.90;;;;;;5047202;28;20833;-63
2021/12/06 08:08:14;;;;;;;22.30;18.20;;;3.80;99.90;;;;;;5047112;28;20532;-64
2021/12/06 08:10:44;;;;;;;21.67;18.23;;;3.80;99.90;;;;;;5046972;28;20548;-64
2021/12/06 08:13:12;;;;;;;23.93;18.10;;;3.90;99.90;;;;;;5047475;28;20464;-64
2021/12/06 08:15:41;;;;;;;22.40;18.33;;;3.90;99.90;;;;;;5047291;28;20558;-64
2021/12/06 08:18:09;;;;;;;21.10;17.50;;;4.00;99.90;;;;;;5046992;28;20443;-64
2021/12/06 08:20:36;;;;;;;22.07;18.30;;;4.00;99.90;;;;;;5047024;28;20475;-63
2021/12/06 08:23:05;;;;;;;23.97;17.73;;;4.00;99.90;;;;;;5047276;28;20562;-64
2021/12/06 08:25:32;;;;;;;21.57;17.40;;;4.00;99.90;;;;;;5047126;28;20453;-64
2021/12/06 08:27:59;;;;;;;20.70;16.17;;;4.00;99.90;;;;;;5046810;28;20477;-65
2021/12/06 08:30:27;;;;;;;23.70;19.20;;;4.00;99.90;;;;;;5047214;28;21072;-65
2021/12/06 08:32:58;;;;;;;24.47;17.93;;;4.00;99.90;;;;;;5048244;28;20521;-61
2021/12/06 08:35:26;;;;;;;24.67;19.23;;;4.00;99.90;;;;;;5047628;28;20538;-63
2021/12/06 08:37:54;;;;;;;23.03;18.60;;;4.10;99.90;;;;;;5047585;28;20784;-65
2021/12/06 08:40:22;;;;;;;23.53;19.53;;;4.10;99.90;;;;;;5047428;28;20842;-64
2021/12/06 08:42:49;;;;;;;22.07;18.00;;;4.30;99.90;;;;;;5047950;28;20464;-64
2021/12/06 08:45:17;;;;;;;22.20;17.33;;;4.40;99.90;;;;;;5047457;28;20613;-64
2021/12/06 08:47:45;;;;;;;24.23;19.03;;;4.30;99.90;;;;;;5047518;28;20491;-63
2021/12/06 08:50:22;;;;;;;21.87;16.50;;;4.30;99.90;;;;;;5047614;28;20463;-63
2021/12/06 08:52:49;;;;;;;24.27;15.90;;;4.40;99.90;;;;;;5047927;28;20433;-64
2021/12/06 08:55:18;;;;;;;25.90;17.43;;;4.40;99.90;;;;;;5046996;28;20938;-66
2021/12/06 08:57:46;;;;;;;28.50;18.40;;;4.40;99.90;;;;;;5047779;28;20455;-65
2021/12/06 09:00:18;;;;;;;23.47;17.73;;;4.40;99.90;;;;;;5048647;28;20491;-64
2021/12/06 09:02:45;;;;;;;25.73;17.07;;;4.50;99.90;;;;;;5051421;28;20456;-64
2021/12/06 09:05:14;;;;;;;22.70;17.67;;;4.60;99.90;;;;;;5051762;28;20835;-63
2021/12/06 09:07:41;;;;;;;26.93;18.13;;;4.70;99.90;;;;;;5050662;28;20893;-64
2021/12/06 09:10:12;;;;;;;26.43;17.10;;;4.70;99.90;;;;;;5050537;28;20555;-63
2021/12/06 09:12:40;;;;;;;22.73;16.40;;;4.80;99.90;;;;;;5050848;28;20510;-66
2021/12/06 09:15:12;;;;;;;24.27;16.67;;;4.70;99.90;;;;;;5050568;28;21016;-65
2021/12/06 09:17:39;;;;;;;24.50;17.40;;;4.80;99.90;;;;;;5050281;28;20460;-63
2021/12/06 09:20:09;;;;;;;27.30;17.53;;;4.70;99.90;;;;;;5050427;28;20483;-65
2021/12/06 09:22:38;;;;;;;31.90;19.23;;;4.70;99.90;;;;;;5050284;28;20455;-64
2021/12/06 09:25:09;;;;;;;26.37;19.10;;;4.80;99.90;;;;;;5050532;28;20459;-63
2021/12/06 09:27:36;;;;;;;26.03;18.17;;;4.90;99.90;;;;;;5050313;28;20452;-65
2021/12/06 09:30:05;;;;;;;23.77;16.30;;;4.90;99.90;;;;;;5050812;28;20497;-64
2021/12/06 09:32:32;;;;;;;24.10;16.47;;;4.90;99.90;;;;;;5050293;28;20546;-66
2021/12/06 09:34:59;;;;;;;23.37;16.77;;;4.90;99.90;;;;;;5050612;28;20444;-65
2021/12/06 09:37:26;;;;;;;25.03;16.83;;;5.00;99.90;;;;;;5050397;28;21040;-64
2021/12/06 09:39:57;;;;;;;23.50;16.63;;;5.10;99.90;;;;;;5050373;28;20919;-63
2021/12/06 09:42:25;;;;;;;22.53;16.00;;;5.20;99.90;;;;;;5049568;28;20460;-63
2021/12/06 09:44:53;;;;;;;23.70;17.00;;;5.20;99.90;;;;;;5049741;28;20469;-63
2021/12/06 09:47:21;;;;;;;24.57;16.53;;;5.20;99.90;;;;;;5049269;28;20839;-62
2021/12/06 09:49:47;;;;;;;23.53;17.27;;;5.10;99.90;;;;;;5049335;28;20468;-64
2021/12/06 09:52:15;;;;;;;22.50;16.37;;;5.10;99.90;;;;;;5049694;28;20780;-63
2021/12/06 09:54:42;;;;;;;22.47;16.13;;;5.10;99.90;;;;;;5049523;28;20935;-63
2021/12/06 09:57:11;;;;;;;22.57;17.20;;;5.20;99.90;;;;;;5049092;28;20483;-64
2021/12/06 09:59:40;;;;;;;26.07;18.60;;;5.30;99.90;;;;;;5049464;28;20504;-63
2021/12/06 10:02:10;;;;;;;22.07;15.70;;;5.30;99.90;;;;;;5049321;28;20487;-64
2021/12/06 10:04:41;;;;;;;23.60;17.03;;;5.30;99.90;;;;;;5049206;28;20957;-65
2021/12/06 10:07:09;;;;;;;23.93;16.00;;;5.30;99.90;;;;;;5048923;28;21016;-63
2021/12/06 10:09:37;;;;;;;21.73;17.07;;;5.30;99.90;;;;;;5049441;28;20486;-63
2021/12/06 10:12:05;;;;;;;22.27;15.77;;;5.30;99.90;;;;;;5048945;28;20943;-64
2021/12/06 10:14:35;;;;;;;25.03;16.40;;;5.20;99.90;;;;;;5049254;28;20455;-64
2021/12/06 10:17:02;;;;;;;22.87;13.93;;;5.20;99.90;;;;;;5048688;28;20957;-64
2021/12/06 10:19:29;;;;;;;22.90;15.20;;;5.20;99.90;;;;;;5049277;28;20467;-64
2021/12/06 10:21:56;;;;;;;21.43;15.13;;;5.20;99.90;;;;;;5049048;28;20482;-63
2021/12/06 10:24:26;;;;;;;20.60;15.47;;;5.10;99.90;;;;;;5049217;28;20836;-62
2021/12/06 10:27:03;;;;;;;20.93;15.37;;;5.20;99.90;;;;;;5049079;28;20453;-62
2021/12/06 10:29:39;;;;;;;18.20;14.17;;;5.30;99.90;;;;;;5048894;28;20475;-64
2021/12/06 10:32:13;;;;;;;23.40;14.50;;;5.50;99.90;;;;;;5049078;28;21197;-63
2021/12/06 10:34:45;;;;;;;22.47;15.70;;;5.50;99.90;;;;;;5049087;28;20451;-64
2021/12/06 10:37:28;;;;;;;20.13;14.60;;;5.70;99.90;;;;;;5048570;28;20459;-66
2021/12/06 10:39:56;;;;;;;19.60;15.80;;;5.80;99.90;;;;;;5048687;28;20818;-63
2021/12/06 10:42:28;;;;;;;18.50;12.93;;;6.00;99.90;;;;;;5048724;28;20487;-64
2021/12/06 10:45:01;;;;;;;17.63;13.60;;;6.10;99.90;;;;;;5048821;28;20444;-66
2021/12/06 10:47:28;;;;;;;19.53;13.90;;;6.20;99.90;;;;;;5048199;28;20487;-63
2021/12/06 10:50:05;;;;;;;24.50;13.10;;;6.20;99.90;;;;;;5048287;28;20473;-64
2021/12/06 10:52:33;;;;;;;16.13;11.57;;;6.30;99.90;;;;;;5048221;28;20452;-64
2021/12/06 10:55:00;;;;;;;16.37;12.77;;;6.30;99.90;;;;;;5048794;28;20444;-64
2021/12/06 10:57:49;;;;;;;14.93;10.80;;;6.20;99.90;;;;;;5048132;28;20543;-65
2021/12/06 11:00:41;;;;;;;15.43;11.17;;;6.40;99.90;;;;;;5048237;28;20465;-63
2021/12/06 11:03:23;;;;;;;15.30;10.40;;;6.60;99.90;;;;;;5048385;28;20871;-63
2021/12/06 11:05:54;;;;;;;16.03;11.13;;;6.50;99.90;;;;;;5048238;28;20444;-63
2021/12/06 11:08:25;;;;;;;15.50;12.00;;;6.50;99.90;;;;;;5047802;28;20453;-64
2021/12/06 11:10:55;;;;;;;16.63;12.07;;;6.50;99.90;;;;;;5048083;28;20461;-63
2021/12/06 11:13:25;;;;;;;16.10;12.10;;;6.40;99.90;;;;;;5048826;28;20444;-64
2021/12/06 11:15:57;;;;;;;14.20;10.47;;;6.10;99.90;;;;;;5049703;28;20471;-64
2021/12/06 11:18:40;;;;;;;13.73;10.43;;;6.10;99.90;;;;;;5048275;28;20456;-64
2021/12/06 11:21:16;;;;;;;17.10;11.57;;;6.10;99.90;;;;;;5047846;28;20971;-65
2021/12/06 11:24:04;;;;;;;17.10;12.97;;;6.20;99.90;;;;;;5047119;28;20463;-64
2021/12/06 11:26:32;;;;;;;16.10;12.53;;;6.20;99.90;;;;;;5047639;28;20444;-64
2021/12/06 11:29:07;;;;;;;15.30;12.37;;;6.20;99.90;;;;;;5048006;28;20450;-64
2021/12/06 11:31:36;;;;;;;14.60;11.27;;;6.20;99.90;;;;;;5048123;28;20448;-65
2021/12/06 11:34:06;;;;;;;14.93;10.80;;;6.40;99.90;;;;;;5048046;28;20530;-64
2021/12/06 11:36:33;;;;;;;14.20;10.97;;;6.60;99.90;;;;;;5047432;28;20543;-64
2021/12/06 11:39:05;;;;;;;12.87;11.30;;;6.70;99.90;;;;;;5047654;28;20536;-63
2021/12/06 11:41:32;;;;;;;16.70;11.90;;;6.70;99.90;;;;;;5047595;28;20484;-64
2021/12/06 11:44:00;;;;;;;15.77;10.73;;;7.00;99.90;;;;;;5048422;28;20559;-64
2021/12/06 11:46:29;;;;;;;16.90;11.93;;;7.30;99.90;;;;;;5047088;28;20459;-64
2021/12/06 11:48:57;;;;;;;14.07;11.10;;;7.40;99.90;;;;;;5047569;28;20448;-64
2021/12/06 11:51:26;;;;;;;14.37;11.77;;;7.60;99.90;;;;;;5047540;28;21032;-64
2021/12/06 11:53:56;;;;;;;15.73;11.70;;;7.70;99.90;;;;;;5047775;28;20460;-63
2021/12/06 11:56:26;;;;;;;14.20;11.47;;;7.90;99.90;;;;;;5047577;28;20452;-64
2021/12/06 11:58:54;;;;;;;14.10;11.30;;;8.00;99.90;;;;;;5047732;28;20456;-65
2021/12/06 12:01:26;;;;;;;15.20;11.50;;;8.00;99.90;;;;;;5047603;28;20476;-64
2021/12/06 12:03:56;;;;;;;11.73;9.70;;;8.00;99.90;;;;;;5047635;28;20441;-63
2021/12/06 12:06:28;;;;;;;15.33;10.63;;;7.80;99.90;;;;;;5047215;28;20547;-64
2021/12/06 12:09:11;;;;;;;15.47;10.33;;;7.80;99.90;;;;;;5047365;28;20479;-65
2021/12/06 12:11:57;;;;;;;15.00;11.50;;;7.70;99.90;;;;;;5047178;28;20578;-64
2021/12/06 12:14:30;;;;;;;13.30;10.43;;;7.50;99.90;;;;;;5047446;28;20444;-65
2021/12/06 12:16:59;;;;;;;13.33;11.33;;;7.30;99.90;;;;;;5047908;28;20832;-64
2021/12/06 12:19:26;;;;;;;14.20;11.20;;;7.20;99.90;;;;;;5047511;28;20459;-64
2021/12/06 12:21:54;;;;;;;13.47;10.37;;;7.10;99.90;;;;;;5047258;28;20472;-65
2021/12/06 12:24:21;;;;;;;17.87;12.77;;;7.00;99.90;;;;;;5047153;28;20437;-65
2021/12/06 12:27:03;;;;;;;16.80;12.43;;;6.80;99.90;;;;;;5047166;28;20455;-63
2021/12/06 12:29:31;;;;;;;18.20;12.70;;;6.80;99.90;;;;;;5047071;28;20468;-64
2021/12/06 12:32:00;;;;;;;15.07;13.37;;;6.50;99.90;;;;;;5047195;28;20443;-64
2021/12/06 12:34:31;;;;;;;20.20;13.20;;;6.30;99.90;;;;;;5048666;28;21041;-62
2021/12/06 12:37:01;;;;;;;16.83;13.07;;;6.20;99.90;;;;;;5051220;28;20440;-62
2021/12/06 12:39:28;;;;;;;20.43;13.83;;;6.10;99.90;;;;;;5050718;28;20460;-64
2021/12/06 12:41:59;;;;;;;16.97;12.97;;;6.10;99.90;;;;;;5051283;28;20476;-62
2021/12/06 12:44:41;;;;;;;15.10;12.00;;;6.00;99.90;;;;;;5054961;28;20435;-64
2021/12/06 12:47:15;;;;;;;15.47;12.70;;;6.10;99.90;;;;;;5062255;28;20890;-64
2021/12/06 12:49:45;;;;;;;21.37;14.20;;;6.20;99.90;;;;;;5061302;28;20478;-65
2021/12/06 12:52:14;;;;;;;19.77;13.47;;;6.20;99.90;;;;;;5062098;28;20437;-64
2021/12/06 12:54:45;;;;;;;16.23;13.10;;;6.30;99.90;;;;;;5059908;28;20445;-63